Time;durP1;ratioP1;P1;durP2;ratioP2;P2;SDS_P1;SDS_P2;PMS_P1;PMS_P2;Temp;Humidity;BMP_temperature;BMP_pressure;BME280_temperature;BME280_humidity;BME280_pressure;Samples;Min_cycle;Max_cycle;Signal;HPM_P1;HPM_P2
2022/12/03 00:02:10;;;;;;;83.83;37.97;;;4.10;99.90;;;;;;4937762;29;20168;-81
2022/12/03 00:04:39;;;;;;;29.47;15.30;;;4.10;99.90;;;;;;4938692;29;20259;-83
2022/12/03 00:07:07;;;;;;;19.53;11.60;;;4.10;99.90;;;;;;4938250;29;20177;-84
2022/12/03 00:09:33;;;;;;;24.87;12.57;;;4.10;99.90;;;;;;4937831;29;20186;-84
2022/12/03 00:11:59;;;;;;;21.77;12.17;;;4.10;99.90;;;;;;4939111;29;20182;-83
2022/12/03 00:14:25;;;;;;;23.97;12.23;;;4.00;99.90;;;;;;4940141;29;20256;-84
2022/12/03 00:16:50;;;;;;;22.63;12.80;;;4.00;99.90;;;;;;4937253;29;20187;-82
2022/12/03 00:19:16;;;;;;;21.53;11.83;;;4.10;99.90;;;;;;4937349;29;20190;-83
2022/12/03 00:21:45;;;;;;;23.97;12.50;;;4.00;99.90;;;;;;4937231;29;20211;-82
2022/12/03 00:24:11;;;;;;;22.40;11.77;;;4.10;99.90;;;;;;4936026;29;20179;-84
2022/12/03 00:26:37;;;;;;;23.97;12.03;;;4.10;99.90;;;;;;4937251;29;20267;-84
2022/12/03 00:29:03;;;;;;;25.50;12.50;;;4.10;99.90;;;;;;4940842;29;20658;-83
2022/12/03 00:31:28;;;;;;;27.97;12.97;;;4.10;99.90;;;;;;4939731;29;20194;-82
2022/12/03 00:33:54;;;;;;;26.13;12.60;;;4.10;99.90;;;;;;4936187;29;20317;-81
2022/12/03 00:36:20;;;;;;;23.00;12.37;;;4.00;99.90;;;;;;4937025;29;20657;-82
2022/12/03 00:38:46;;;;;;;22.87;11.57;;;4.00;99.90;;;;;;4936758;29;20216;-84
2022/12/03 00:41:12;;;;;;;28.83;12.60;;;3.90;99.90;;;;;;4935702;29;20182;-83
2022/12/03 00:43:38;;;;;;;24.23;12.60;;;3.90;99.90;;;;;;4936586;29;20195;-84
2022/12/03 00:46:04;;;;;;;26.33;13.00;;;3.90;99.90;;;;;;4936706;29;20176;-83
2022/12/03 00:48:29;;;;;;;28.93;12.73;;;3.90;99.90;;;;;;4936858;29;20220;-83
2022/12/03 00:50:55;;;;;;;24.43;12.37;;;3.90;99.90;;;;;;4936512;29;20674;-81
2022/12/03 00:53:21;;;;;;;21.90;11.93;;;4.00;99.90;;;;;;4940330;29;20204;-80
2022/12/03 00:55:49;;;;;;;23.80;12.00;;;3.90;99.90;;;;;;4941169;29;20174;-82
2022/12/03 00:58:16;;;;;;;24.23;12.07;;;4.00;99.90;;;;;;4936388;29;20199;-82
2022/12/03 01:00:42;;;;;;;23.67;11.97;;;3.90;99.90;;;;;;4936337;29;20217;-84
2022/12/03 01:03:07;;;;;;;23.10;11.93;;;3.90;99.90;;;;;;4938708;29;20184;-83
2022/12/03 01:05:33;;;;;;;27.03;12.10;;;3.90;99.90;;;;;;4944599;29;20642;-82
2022/12/03 01:07:59;;;;;;;27.23;11.67;;;3.90;99.90;;;;;;4938327;29;20539;-83
2022/12/03 01:10:25;;;;;;;22.60;10.33;;;4.00;99.90;;;;;;4939983;29;20173;-85
2022/12/03 01:12:51;;;;;;;20.03;10.60;;;3.90;99.90;;;;;;4940765;29;20662;-84
2022/12/03 01:15:17;;;;;;;23.47;11.80;;;4.00;99.90;;;;;;4948629;28;20203;-81
2022/12/03 01:17:43;;;;;;;24.10;11.77;;;3.90;99.90;;;;;;4940167;29;20768;-84
2022/12/03 01:20:10;;;;;;;20.03;11.73;;;3.90;99.90;;;;;;4937961;29;20256;-84
2022/12/03 01:22:36;;;;;;;25.10;11.83;;;3.90;99.90;;;;;;4937014;29;20178;-84
2022/12/03 01:25:02;;;;;;;25.20;11.87;;;3.90;99.90;;;;;;4937822;29;20217;-84
2022/12/03 01:27:28;;;;;;;19.20;11.17;;;3.90;99.90;;;;;;4936247;29;20179;-84
2022/12/03 01:29:53;;;;;;;22.23;11.13;;;3.80;99.90;;;;;;4936223;29;20187;-85
2022/12/03 01:32:19;;;;;;;22.73;11.30;;;3.90;99.90;;;;;;4935893;29;20177;-85
2022/12/03 01:34:50;;;;;;;20.93;10.83;;;3.90;99.90;;;;;;4936080;29;20674;-85
2022/12/03 01:37:18;;;;;;;23.97;11.27;;;3.90;99.90;;;;;;4936091;29;20255;-80
2022/12/03 01:39:44;;;;;;;18.73;10.90;;;3.90;99.90;;;;;;4935736;29;20693;-79
2022/12/03 01:42:26;;;;;;;21.80;10.93;;;3.80;99.90;;;;;;4936079;29;20168;-79
2022/12/03 01:44:53;;;;;;;24.77;10.80;;;3.80;99.90;;;;;;4935356;29;20183;-78
2022/12/03 01:47:23;;;;;;;26.60;10.90;;;3.80;99.90;;;;;;4935659;29;20176;-78
2022/12/03 01:49:53;;;;;;;22.40;11.57;;;3.90;99.90;;;;;;4935817;29;20213;-79
2022/12/03 01:52:23;;;;;;;20.03;10.90;;;3.90;99.90;;;;;;4936049;29;20193;-85
2022/12/03 01:54:55;;;;;;;24.10;11.73;;;3.90;99.90;;;;;;4935769;29;20206;-83
2022/12/03 01:57:48;;;;;;;22.80;11.00;;;4.00;99.90;;;;;;4938686;29;20179;-81
2022/12/03 02:00:20;;;;;;;22.90;11.17;;;3.90;99.90;;;;;;4936692;29;20647;-84
2022/12/03 02:02:50;;;;;;;23.27;11.13;;;3.90;99.90;;;;;;4935914;29;20161;-83
2022/12/03 02:05:27;;;;;;;22.23;11.97;;;4.00;99.90;;;;;;4936735;29;20189;-82
2022/12/03 02:07:54;;;;;;;20.10;10.50;;;3.90;99.90;;;;;;4936558;29;20257;-83
2022/12/03 02:10:25;;;;;;;21.77;10.50;;;3.90;99.90;;;;;;4935634;29;20581;-84
2022/12/03 02:12:58;;;;;;;22.30;11.17;;;3.80;99.90;;;;;;4935771;29;20161;-83
2022/12/03 02:15:24;;;;;;;21.33;11.47;;;3.80;99.90;;;;;;4935622;29;20246;-82
2022/12/03 02:17:50;;;;;;;21.40;9.97;;;3.90;99.90;;;;;;4935653;29;20182;-82
2022/12/03 02:20:18;;;;;;;19.33;9.80;;;3.90;99.90;;;;;;4935381;29;20178;-83
2022/12/03 02:22:50;;;;;;;18.87;11.10;;;3.80;99.90;;;;;;4940186;29;20664;-83
2022/12/03 02:25:30;;;;;;;21.80;10.50;;;3.80;99.90;;;;;;4940236;29;20183;-85
2022/12/03 02:27:57;;;;;;;16.77;9.00;;;3.80;99.90;;;;;;4939308;29;20177;-82
2022/12/03 02:30:25;;;;;;;17.00;10.13;;;3.80;99.90;;;;;;4939313;29;20181;-83
2022/12/03 02:32:55;;;;;;;16.97;9.40;;;3.80;99.90;;;;;;4946883;29;20182;-82
2022/12/03 02:35:27;;;;;;;18.30;9.50;;;3.80;99.90;;;;;;4942042;29;20207;-83
2022/12/03 02:38:05;;;;;;;18.93;10.63;;;3.90;99.90;;;;;;4940433;29;20177;-85
2022/12/03 02:40:32;;;;;;;20.73;10.67;;;3.90;99.90;;;;;;4940562;29;20183;-83
2022/12/03 02:43:01;;;;;;;17.57;9.97;;;3.80;99.90;;;;;;4939423;29;20187;-82
2022/12/03 02:45:37;;;;;;;19.07;10.53;;;3.80;99.90;;;;;;4938029;29;20320;-82
2022/12/03 02:48:08;;;;;;;20.77;10.43;;;3.90;99.90;;;;;;4939321;29;20176;-82
2022/12/03 02:50:44;;;;;;;21.87;10.73;;;3.80;99.90;;;;;;4939333;29;20684;-80
2022/12/03 02:53:20;;;;;;;19.83;10.43;;;3.90;99.90;;;;;;4941671;29;20175;-81
2022/12/03 02:55:47;;;;;;;21.53;10.07;;;3.90;99.90;;;;;;4942438;29;20610;-84
2022/12/03 02:58:14;;;;;;;22.50;11.37;;;3.80;99.90;;;;;;4942425;29;20178;-81
2022/12/03 03:00:40;;;;;;;17.07;10.07;;;3.80;99.90;;;;;;4945912;29;20226;-84
2022/12/03 03:03:07;;;;;;;21.67;11.50;;;3.80;99.90;;;;;;4941769;29;20179;-84
2022/12/03 03:05:36;;;;;;;22.33;11.17;;;3.70;99.90;;;;;;4955568;29;20187;-83
2022/12/03 03:08:03;;;;;;;20.17;10.17;;;3.70;99.90;;;;;;4941825;29;20534;-82
2022/12/03 03:10:31;;;;;;;23.23;11.30;;;3.70;99.90;;;;;;4938952;29;20258;-84
2022/12/03 03:12:57;;;;;;;22.57;11.53;;;3.70;99.90;;;;;;4938867;29;20184;-82
2022/12/03 03:15:24;;;;;;;23.83;11.83;;;3.70;99.90;;;;;;4938595;29;20243;-84
2022/12/03 03:17:50;;;;;;;26.17;11.40;;;3.80;99.90;;;;;;4938721;29;20208;-82
2022/12/03 03:20:20;;;;;;;25.30;12.47;;;3.80;99.90;;;;;;4921806;29;20575;-84
2022/12/03 03:22:45;;;;;;;19.33;10.53;;;3.80;99.90;;;;;;4938266;29;20621;-84
2022/12/03 03:25:15;;;;;;;24.50;11.80;;;3.80;99.90;;;;;;4938615;29;20185;-83
2022/12/03 03:27:42;;;;;;;22.53;11.00;;;3.80;99.90;;;;;;4940048;29;20264;-82
2022/12/03 03:30:10;;;;;;;24.07;12.37;;;3.80;99.90;;;;;;4939893;29;20561;-83
2022/12/03 03:32:37;;;;;;;25.20;12.13;;;3.80;99.90;;;;;;4938365;29;20182;-80
2022/12/03 03:35:03;;;;;;;27.33;13.37;;;3.80;99.90;;;;;;4937555;29;20206;-79
2022/12/03 03:37:29;;;;;;;24.03;12.63;;;3.80;99.90;;;;;;4938747;29;20179;-84
2022/12/03 03:39:56;;;;;;;29.67;13.90;;;3.80;99.90;;;;;;4921102;29;20201;-82
2022/12/03 03:42:22;;;;;;;26.30;12.53;;;3.80;99.90;;;;;;4938338;29;20185;-84
2022/12/03 03:44:48;;;;;;;22.93;12.00;;;3.80;99.90;;;;;;4939058;29;20170;-85
2022/12/03 03:47:14;;;;;;;26.97;12.90;;;3.80;99.90;;;;;;4941677;29;20237;-82
2022/12/03 03:49:41;;;;;;;25.97;13.27;;;3.80;99.90;;;;;;4944903;29;20187;-83
2022/12/03 03:52:10;;;;;;;32.90;13.47;;;3.80;99.90;;;;;;4945161;29;20172;-83
2022/12/03 03:54:37;;;;;;;22.00;11.57;;;3.80;99.90;;;;;;4938183;29;20694;-83
2022/12/03 03:57:03;;;;;;;23.67;12.13;;;3.90;99.90;;;;;;4920666;29;20232;-82
2022/12/03 03:59:29;;;;;;;24.30;12.10;;;3.80;99.90;;;;;;4937763;29;20177;-82
2022/12/03 04:01:55;;;;;;;24.77;12.67;;;3.80;99.90;;;;;;4949103;29;20190;-84
2022/12/03 04:04:23;;;;;;;23.73;12.10;;;3.80;99.90;;;;;;4938155;29;20547;-82
2022/12/03 04:06:49;;;;;;;29.83;12.70;;;3.80;99.90;;;;;;4938033;29;20654;-80
2022/12/03 04:09:15;;;;;;;25.60;12.23;;;3.80;99.90;;;;;;4938832;29;20187;-82
2022/12/03 04:14:25;;;;;;;22.17;11.67;;;3.90;99.90;;;;;;4939126;29;20218;-83
2022/12/03 04:16:51;;;;;;;28.20;12.97;;;3.90;99.90;;;;;;4937454;29;20178;-82
2022/12/03 04:19:17;;;;;;;24.93;12.27;;;3.90;99.90;;;;;;4937422;29;20181;-84
2022/12/03 04:24:27;;;;;;;23.83;12.40;;;3.90;99.90;;;;;;4937585;29;20583;-84
2022/12/03 04:29:37;;;;;;;27.93;12.83;;;3.90;99.90;;;;;;4938005;29;20216;-83
2022/12/03 04:37:32;;;;;;;31.10;13.00;;;3.90;99.90;;;;;;4937811;29;20177;-85
2022/12/03 04:39:58;;;;;;;27.83;13.47;;;3.90;99.90;;;;;;4920170;29;20188;-82
2022/12/03 04:42:23;;;;;;;31.30;13.97;;;3.90;99.90;;;;;;4937841;29;20209;-84
2022/12/03 04:44:49;;;;;;;30.83;13.13;;;3.90;99.90;;;;;;4938711;29;20181;-83
2022/12/03 04:47:18;;;;;;;28.37;13.80;;;4.00;99.90;;;;;;4939284;29;20256;-83
2022/12/03 04:49:50;;;;;;;23.53;12.50;;;3.90;99.90;;;;;;4940604;29;20184;-86
2022/12/03 04:52:18;;;;;;;28.23;13.50;;;3.90;99.90;;;;;;4945448;29;20182;-81
2022/12/03 04:54:44;;;;;;;28.83;13.70;;;3.90;99.90;;;;;;4956382;28;20222;-84
2022/12/03 04:57:10;;;;;;;26.60;12.03;;;3.80;99.90;;;;;;4939046;29;20179;-83
2022/12/03 04:59:38;;;;;;;27.27;12.23;;;3.80;99.90;;;;;;4937499;29;20228;-84
2022/12/03 05:02:04;;;;;;;28.20;12.70;;;3.90;99.90;;;;;;4937472;29;20212;-85
2022/12/03 05:04:30;;;;;;;24.17;12.73;;;3.90;99.90;;;;;;4922553;29;20550;-83
2022/12/03 05:06:57;;;;;;;25.70;13.07;;;3.80;99.90;;;;;;4937857;29;20703;-81
2022/12/03 05:09:22;;;;;;;25.53;13.23;;;3.90;99.90;;;;;;4936642;29;20193;-80
2022/12/03 05:11:48;;;;;;;25.63;13.27;;;3.90;99.90;;;;;;4919043;29;20536;-82
2022/12/03 05:14:14;;;;;;;23.03;12.00;;;3.90;99.90;;;;;;4936090;29;20218;-79
2022/12/03 05:16:40;;;;;;;24.67;12.67;;;3.90;99.90;;;;;;4936235;29;20168;-81
2022/12/03 05:19:07;;;;;;;20.23;11.67;;;3.90;99.90;;;;;;4936387;29;20174;-79
2022/12/03 05:21:33;;;;;;;25.60;12.93;;;4.00;99.90;;;;;;4937072;29;20179;-80
2022/12/03 05:23:59;;;;;;;23.40;11.90;;;3.90;99.90;;;;;;4919440;29;20632;-81
2022/12/03 05:26:25;;;;;;;28.03;12.57;;;3.90;99.90;;;;;;4940410;29;20252;-80
2022/12/03 05:28:50;;;;;;;24.83;12.43;;;4.00;99.90;;;;;;4938872;29;20181;-81
2022/12/03 05:31:16;;;;;;;27.73;13.27;;;3.90;99.90;;;;;;4922630;29;20181;-85
2022/12/03 05:33:42;;;;;;;23.07;12.07;;;3.90;99.90;;;;;;4936365;29;20205;-84
2022/12/03 05:36:08;;;;;;;25.70;11.93;;;4.00;99.90;;;;;;4949815;29;20180;-83
2022/12/03 05:38:34;;;;;;;24.93;11.90;;;4.00;99.90;;;;;;4941615;29;20199;-83
2022/12/03 05:41:00;;;;;;;22.67;11.83;;;4.00;99.90;;;;;;4936281;29;20207;-83
2022/12/03 05:43:26;;;;;;;21.47;11.27;;;3.90;99.90;;;;;;4919368;29;20181;-84
2022/12/03 05:45:52;;;;;;;24.40;11.73;;;3.90;99.90;;;;;;4935963;29;20248;-83
2022/12/03 05:48:18;;;;;;;22.63;11.87;;;3.90;99.90;;;;;;4939728;29;20376;-79
2022/12/03 05:50:45;;;;;;;24.73;12.63;;;3.90;99.90;;;;;;4937464;29;20181;-84
2022/12/03 05:53:12;;;;;;;24.57;12.97;;;3.90;99.90;;;;;;4936177;29;20173;-85
2022/12/03 05:55:37;;;;;;;23.23;13.23;;;3.90;99.90;;;;;;4936185;29;20643;-84
2022/12/03 05:58:04;;;;;;;23.60;12.60;;;4.00;99.90;;;;;;4937564;29;20288;-84
2022/12/03 06:00:32;;;;;;;23.53;13.27;;;4.00;99.90;;;;;;4942150;29;20274;-83
2022/12/03 06:02:58;;;;;;;27.87;12.83;;;4.00;99.90;;;;;;4942815;29;20875;-84
2022/12/03 06:05:25;;;;;;;27.63;13.27;;;4.00;99.90;;;;;;4942148;29;20178;-84
2022/12/03 06:07:51;;;;;;;23.83;12.40;;;4.00;99.90;;;;;;4942297;29;20179;-83
2022/12/03 06:10:20;;;;;;;28.83;12.73;;;3.90;99.90;;;;;;4926755;29;20192;-84
2022/12/03 06:12:46;;;;;;;25.20;12.53;;;3.90;99.90;;;;;;4943991;29;20210;-83
2022/12/03 06:15:13;;;;;;;29.43;13.27;;;3.90;99.90;;;;;;4942325;29;20263;-85
2022/12/03 06:17:39;;;;;;;28.07;13.33;;;3.90;99.90;;;;;;4942534;29;20179;-84
2022/12/03 06:20:06;;;;;;;31.73;14.10;;;3.90;99.90;;;;;;4941033;29;20184;-83
2022/12/03 06:22:32;;;;;;;27.93;13.83;;;3.90;99.90;;;;;;4942176;29;20226;-83
2022/12/03 06:24:58;;;;;;;35.10;14.13;;;3.90;99.90;;;;;;4926642;29;20192;-83
2022/12/03 06:27:24;;;;;;;31.67;14.93;;;3.90;99.90;;;;;;4943101;29;20256;-85
2022/12/03 06:29:49;;;;;;;27.97;13.90;;;3.90;99.90;;;;;;4942070;29;20244;-83
2022/12/03 06:32:15;;;;;;;28.93;14.13;;;3.90;99.90;;;;;;4942262;29;20211;-81
2022/12/03 06:34:43;;;;;;;26.57;12.63;;;3.80;99.90;;;;;;4943343;29;20282;-86
2022/12/03 06:37:09;;;;;;;27.20;12.93;;;3.90;99.90;;;;;;4927351;29;20221;-84
2022/12/03 06:39:35;;;;;;;28.97;12.87;;;3.90;99.90;;;;;;4945653;29;20187;-83
2022/12/03 06:42:01;;;;;;;29.80;13.03;;;3.90;99.90;;;;;;4947503;29;20689;-82
2022/12/03 06:44:27;;;;;;;28.83;12.53;;;3.90;99.90;;;;;;4954216;29;20176;-82
2022/12/03 06:46:54;;;;;;;24.13;12.87;;;3.90;99.90;;;;;;4946136;29;20174;-85
2022/12/03 06:49:20;;;;;;;29.53;12.70;;;4.00;99.90;;;;;;4945068;29;20188;-83
2022/12/03 06:51:46;;;;;;;25.87;12.90;;;4.00;99.90;;;;;;4942113;29;20173;-81
2022/12/03 06:54:12;;;;;;;29.83;12.13;;;4.00;99.90;;;;;;4941408;29;20570;-83
2022/12/03 06:56:38;;;;;;;24.33;12.00;;;4.00;99.90;;;;;;4926826;29;20253;-80
2022/12/03 06:59:03;;;;;;;26.17;11.50;;;4.00;99.90;;;;;;4935914;29;20267;-81
2022/12/03 07:01:29;;;;;;;24.93;12.80;;;4.00;99.90;;;;;;4948167;29;20237;-80
2022/12/03 07:03:55;;;;;;;26.00;13.00;;;4.10;99.90;;;;;;4942471;29;20179;-80
2022/12/03 07:06:21;;;;;;;27.97;12.33;;;4.00;99.90;;;;;;4941386;29;20182;-80
2022/12/03 07:08:46;;;;;;;26.23;12.13;;;4.00;99.90;;;;;;4941707;29;20186;-81
2022/12/03 07:11:30;;;;;;;25.37;11.90;;;4.10;99.90;;;;;;4937613;29;20227;-83
2022/12/03 07:14:01;;;;;;;21.20;11.87;;;4.10;99.90;;;;;;4938835;29;20243;-80
2022/12/03 07:16:27;;;;;;;23.83;12.20;;;4.00;99.90;;;;;;4939144;29;20220;-82
2022/12/03 07:18:53;;;;;;;24.93;12.37;;;4.00;99.90;;;;;;4937854;29;20183;-84
2022/12/03 07:21:19;;;;;;;27.93;12.70;;;4.10;99.90;;;;;;4917760;29;20180;-79
2022/12/03 07:23:44;;;;;;;26.33;12.63;;;4.10;99.90;;;;;;4945776;29;20188;-79
2022/12/03 07:26:10;;;;;;;22.90;12.30;;;4.00;99.90;;;;;;4940391;29;20640;-81
2022/12/03 07:28:36;;;;;;;26.57;11.97;;;4.00;99.90;;;;;;4937774;29;20217;-79
2022/12/03 07:31:02;;;;;;;27.80;12.73;;;4.10;99.90;;;;;;4938953;29;20280;-80
2022/12/03 07:33:28;;;;;;;24.93;12.30;;;4.10;99.90;;;;;;4921422;29;20195;-82
2022/12/03 07:35:53;;;;;;;23.90;12.03;;;4.00;99.90;;;;;;4938588;29;20258;-80
2022/12/03 07:38:19;;;;;;;24.47;12.23;;;4.00;99.90;;;;;;4938103;29;20521;-80
2022/12/03 07:40:45;;;;;;;26.43;11.83;;;4.00;99.90;;;;;;4937966;29;20178;-79
2022/12/03 07:43:11;;;;;;;22.73;11.73;;;4.00;99.90;;;;;;4937905;29;20188;-82
2022/12/03 07:45:37;;;;;;;23.97;10.97;;;4.00;99.90;;;;;;4921431;29;20180;-82
2022/12/03 07:48:03;;;;;;;22.73;11.40;;;4.00;99.90;;;;;;4939963;29;20174;-82
2022/12/03 07:50:29;;;;;;;27.03;12.27;;;4.00;99.90;;;;;;4938749;29;20185;-81
2022/12/03 07:52:56;;;;;;;22.20;10.77;;;4.00;99.90;;;;;;4939403;29;20168;-83
2022/12/03 07:55:24;;;;;;;25.87;11.37;;;4.10;99.90;;;;;;4942366;29;20213;-84
2022/12/03 07:57:49;;;;;;;24.13;11.87;;;4.00;99.90;;;;;;4939361;29;20206;-84
2022/12/03 08:00:16;;;;;;;22.27;11.43;;;4.10;99.90;;;;;;4938477;29;20226;-82
2022/12/03 08:02:42;;;;;;;19.40;11.03;;;4.10;99.90;;;;;;4938579;29;20180;-83
2022/12/03 08:05:08;;;;;;;24.07;11.37;;;4.10;99.90;;;;;;4940119;29;20526;-80
2022/12/03 08:07:34;;;;;;;25.93;12.33;;;4.20;99.90;;;;;;4922072;29;20548;-82
2022/12/03 08:10:00;;;;;;;25.07;11.67;;;4.20;99.90;;;;;;4938947;29;20539;-83
2022/12/03 08:12:38;;;;;;;22.73;11.67;;;4.30;99.90;;;;;;4939146;29;20257;-82
2022/12/03 08:15:18;;;;;;;22.23;11.27;;;4.40;99.90;;;;;;4939199;29;20235;-81
2022/12/03 08:17:46;;;;;;;20.90;10.73;;;4.30;99.90;;;;;;4942433;29;20204;-82
2022/12/03 08:20:16;;;;;;;23.83;12.30;;;4.40;99.90;;;;;;4940599;29;20176;-81
2022/12/03 08:22:43;;;;;;;28.70;13.97;;;4.40;99.90;;;;;;4941111;29;20184;-84
2022/12/03 08:25:28;;;;;;;23.60;13.07;;;4.40;99.90;;;;;;4940537;29;20251;-83
2022/12/03 08:28:17;;;;;;;28.23;12.93;;;4.60;99.90;;;;;;4941812;29;20185;-82
2022/12/03 08:30:48;;;;;;;22.23;11.63;;;4.60;99.90;;;;;;4931156;29;20200;-85
2022/12/03 08:33:35;;;;;;;20.87;11.60;;;4.70;99.90;;;;;;4936352;29;20187;-80
2022/12/03 08:36:25;;;;;;;21.90;11.77;;;4.80;99.90;;;;;;4941232;29;20636;-82
2022/12/03 08:39:01;;;;;;;19.60;11.73;;;4.80;99.90;;;;;;4938459;29;20516;-82
2022/12/03 08:44:40;;;;;;;21.90;12.07;;;4.70;99.90;;;;;;4937637;29;20203;-82
2022/12/03 08:47:08;;;;;;;22.83;11.53;;;4.80;99.90;;;;;;4934071;29;20280;-80
2022/12/03 08:49:35;;;;;;;20.53;10.87;;;4.80;99.90;;;;;;4937218;29;20180;-82
2022/12/03 08:52:14;;;;;;;20.20;11.27;;;4.80;99.90;;;;;;4938257;29;20190;-80
2022/12/03 08:54:42;;;;;;;18.10;9.67;;;4.80;99.90;;;;;;4937167;29;20202;-81
2022/12/03 08:57:29;;;;;;;21.47;12.53;;;4.80;99.90;;;;;;4920043;29;20181;-77
2022/12/03 09:00:17;;;;;;;18.97;10.90;;;4.80;99.90;;;;;;4938024;29;20274;-82
2022/12/03 09:02:50;;;;;;;19.93;10.47;;;4.80;99.90;;;;;;4921150;29;20187;-84
2022/12/03 09:05:20;;;;;;;21.93;10.67;;;4.80;99.90;;;;;;4937464;29;20208;-84
2022/12/03 09:07:46;;;;;;;19.13;11.13;;;4.80;99.90;;;;;;4940055;29;20196;-83
2022/12/03 09:10:12;;;;;;;21.37;10.93;;;4.80;99.90;;;;;;4928888;29;20172;-83
2022/12/03 09:12:38;;;;;;;20.40;11.70;;;4.80;99.90;;;;;;4949344;29;20613;-85
2022/12/03 09:15:04;;;;;;;21.23;11.17;;;4.90;99.90;;;;;;4938106;29;20219;-83
2022/12/03 09:17:30;;;;;;;17.23;9.97;;;4.90;99.90;;;;;;4937457;29;20600;-83
2022/12/03 09:19:56;;;;;;;19.37;10.93;;;4.90;99.90;;;;;;4937430;29;20180;-82
2022/12/03 09:22:22;;;;;;;19.17;11.87;;;4.90;99.90;;;;;;4937884;29;20188;-83
2022/12/03 09:24:47;;;;;;;22.50;12.47;;;4.90;99.90;;;;;;4939716;29;20188;-82
2022/12/03 09:27:13;;;;;;;22.77;11.77;;;4.90;99.90;;;;;;4938051;29;20629;-85
2022/12/03 09:29:39;;;;;;;23.17;12.67;;;4.90;99.90;;;;;;4937513;29;20207;-82
2022/12/03 09:32:05;;;;;;;26.03;12.97;;;5.00;99.90;;;;;;4938178;29;20303;-83
2022/12/03 09:34:31;;;;;;;22.83;12.40;;;4.90;99.90;;;;;;4919118;29;20219;-84
2022/12/03 09:36:56;;;;;;;21.80;12.50;;;5.00;99.90;;;;;;4936786;29;20611;-84
2022/12/03 09:39:22;;;;;;;22.10;12.57;;;5.00;99.90;;;;;;4919504;29;20275;-85
2022/12/03 09:41:48;;;;;;;21.63;12.53;;;4.90;99.90;;;;;;4936762;29;20254;-84
2022/12/03 09:44:14;;;;;;;19.70;11.57;;;5.00;99.90;;;;;;4941110;29;20240;-83
2022/12/03 09:46:41;;;;;;;20.23;12.17;;;5.10;99.90;;;;;;4937039;29;20682;-85
2022/12/03 09:49:10;;;;;;;18.90;11.30;;;5.10;99.90;;;;;;4936561;29;20191;-82
2022/12/03 09:51:36;;;;;;;20.93;11.80;;;5.10;99.90;;;;;;4919359;29;20222;-84
2022/12/03 09:54:05;;;;;;;21.10;11.57;;;5.20;99.90;;;;;;4939540;29;20210;-84
2022/12/03 09:56:34;;;;;;;22.30;11.70;;;5.20;99.90;;;;;;4925541;29;20551;-83
2022/12/03 09:59:01;;;;;;;24.17;12.20;;;5.30;99.90;;;;;;4937926;29;20227;-84
2022/12/03 10:01:27;;;;;;;19.73;11.43;;;5.30;99.90;;;;;;4936955;29;20217;-82
2022/12/03 10:03:53;;;;;;;19.63;11.50;;;5.30;99.90;;;;;;4936633;29;20176;-82
2022/12/03 10:06:21;;;;;;;17.80;11.00;;;5.40;99.90;;;;;;4936455;29;20181;-83
2022/12/03 10:08:52;;;;;;;20.03;11.80;;;5.40;99.90;;;;;;4937122;29;20172;-83
2022/12/03 10:11:21;;;;;;;20.57;11.90;;;5.40;99.90;;;;;;4921217;29;20251;-85
2022/12/03 10:13:47;;;;;;;22.43;11.23;;;5.20;99.90;;;;;;4940492;29;20213;-83
2022/12/03 10:16:17;;;;;;;19.57;11.43;;;5.20;99.90;;;;;;4938615;29;20169;-80
2022/12/03 10:19:01;;;;;;;21.27;11.70;;;5.20;99.90;;;;;;4942031;29;20169;-83
2022/12/03 10:21:34;;;;;;;17.77;9.87;;;5.20;99.90;;;;;;4956931;29;20165;-82
2022/12/03 10:24:15;;;;;;;19.70;10.30;;;5.20;99.90;;;;;;4927954;29;20204;-82
2022/12/03 10:26:43;;;;;;;19.27;11.00;;;5.10;99.90;;;;;;4920099;29;20175;-82
2022/12/03 10:29:25;;;;;;;18.73;10.70;;;5.10;99.90;;;;;;4936581;29;20184;-82
2022/12/03 10:31:58;;;;;;;18.40;10.73;;;5.00;99.90;;;;;;4936586;29;20251;-83
2022/12/03 10:34:34;;;;;;;19.37;11.10;;;5.10;99.90;;;;;;4919223;29;20302;-80
2022/12/03 10:37:11;;;;;;;22.47;11.93;;;5.20;99.90;;;;;;4936333;29;20219;-83
2022/12/03 10:40:00;;;;;;;21.53;10.97;;;5.10;99.90;;;;;;4936168;29;20595;-79
2022/12/03 10:42:29;;;;;;;21.03;11.17;;;5.10;99.90;;;;;;4936076;29;20178;-78
2022/12/03 10:45:11;;;;;;;22.43;11.80;;;5.10;99.90;;;;;;4937184;29;20231;-82
2022/12/03 10:47:37;;;;;;;21.33;11.73;;;5.10;99.90;;;;;;4940580;29;20179;-82
2022/12/03 10:50:12;;;;;;;24.53;11.97;;;5.10;99.90;;;;;;4940125;29;20254;-83
2022/12/03 10:52:38;;;;;;;21.63;11.27;;;5.20;99.90;;;;;;4941274;29;20171;-82
2022/12/03 10:55:05;;;;;;;17.90;10.30;;;5.10;99.90;;;;;;4941210;29;20212;-82
2022/12/03 10:57:31;;;;;;;24.50;11.73;;;5.20;99.90;;;;;;4956214;29;20204;-82
2022/12/03 10:59:57;;;;;;;24.47;11.63;;;5.10;99.90;;;;;;4945871;29;20234;-84
2022/12/03 11:02:24;;;;;;;22.53;10.83;;;5.10;99.90;;;;;;4940511;29;20534;-84
2022/12/03 11:04:50;;;;;;;21.70;11.43;;;5.10;99.90;;;;;;4939828;29;20267;-85
2022/12/03 11:07:19;;;;;;;27.20;12.77;;;5.30;99.90;;;;;;4922473;29;20184;-84
2022/12/03 11:09:47;;;;;;;21.17;11.57;;;5.30;99.90;;;;;;4940716;29;20181;-85
2022/12/03 11:12:22;;;;;;;22.37;11.60;;;5.50;99.90;;;;;;4940209;29;20203;-84
2022/12/03 11:14:52;;;;;;;19.17;10.63;;;5.40;99.90;;;;;;4939756;29;20214;-83
2022/12/03 11:17:43;;;;;;;19.23;11.30;;;5.50;99.90;;;;;;4939668;29;20301;-85
2022/12/03 11:20:49;;;;;;;20.10;10.57;;;5.50;99.90;;;;;;4939599;29;20168;-82
2022/12/03 11:23:44;;;;;;;21.97;11.60;;;5.40;99.90;;;;;;4906026;29;20283;-84
2022/12/03 11:26:13;;;;;;;19.03;10.53;;;5.40;99.90;;;;;;4939367;29;20644;-84
2022/12/03 11:28:44;;;;;;;17.60;11.13;;;5.40;99.90;;;;;;4939064;29;20274;-83
2022/12/03 11:31:38;;;;;;;22.10;11.40;;;5.30;99.90;;;;;;4940923;29;20199;-84
2022/12/03 11:34:19;;;;;;;22.10;10.90;;;5.20;99.90;;;;;;4940052;29;20690;-85
2022/12/03 11:37:10;;;;;;;23.63;11.10;;;5.20;99.90;;;;;;4939266;29;20174;-83
2022/12/03 11:39:51;;;;;;;19.47;10.70;;;5.10;99.90;;;;;;4921570;29;20246;-83
2022/12/03 11:42:25;;;;;;;20.50;10.43;;;5.10;99.90;;;;;;4921575;29;20179;-83
2022/12/03 11:45:03;;;;;;;19.80;10.67;;;5.10;99.90;;;;;;4939847;29;20179;-84
2022/12/03 11:47:39;;;;;;;20.03;10.70;;;5.10;99.90;;;;;;4938717;29;20261;-83
2022/12/03 11:50:17;;;;;;;22.70;11.43;;;5.20;99.90;;;;;;4939159;29;20291;-84
2022/12/03 11:52:46;;;;;;;17.13;9.67;;;5.10;99.90;;;;;;4938866;29;20171;-83
2022/12/03 11:55:36;;;;;;;19.53;10.00;;;5.10;99.90;;;;;;4939076;29;20229;-80
2022/12/03 11:58:04;;;;;;;19.87;10.70;;;5.10;99.90;;;;;;4938217;29;20572;-82
2022/12/03 12:00:31;;;;;;;16.30;9.17;;;5.20;99.90;;;;;;4939476;29;20238;-84
2022/12/03 12:02:57;;;;;;;19.83;10.23;;;5.20;99.90;;;;;;4940370;29;20220;-81
2022/12/03 12:05:28;;;;;;;18.93;9.93;;;5.20;99.90;;;;;;4924047;29;20272;-82
2022/12/03 12:07:54;;;;;;;15.33;8.70;;;5.00;99.90;;;;;;4946371;29;20168;-80
2022/12/03 12:10:47;;;;;;;17.23;9.97;;;5.00;99.90;;;;;;4957288;29;20195;-83
2022/12/03 12:13:32;;;;;;;20.27;10.77;;;5.00;99.90;;;;;;4947057;29;20168;-79
2022/12/03 12:16:06;;;;;;;18.93;10.57;;;5.00;99.90;;;;;;4942511;29;20250;-82
2022/12/03 12:18:37;;;;;;;18.77;9.97;;;5.10;99.90;;;;;;4940138;29;20666;-82
2022/12/03 12:21:41;;;;;;;24.40;10.13;;;5.10;99.90;;;;;;4939447;29;20257;-82
2022/12/03 12:24:56;;;;;;;16.70;9.37;;;5.00;99.90;;;;;;4939640;29;20701;-79
2022/12/03 12:27:44;;;;;;;16.87;9.43;;;5.00;99.90;;;;;;4921015;29;20191;-79
2022/12/03 12:30:18;;;;;;;16.90;9.73;;;5.00;99.90;;;;;;4938403;29;20642;-80
2022/12/03 12:32:50;;;;;;;14.70;9.13;;;5.00;99.90;;;;;;4938899;29;20157;-83
2022/12/03 12:35:20;;;;;;;18.70;10.20;;;5.00;99.90;;;;;;4939981;29;20196;-84
2022/12/03 12:37:59;;;;;;;17.03;9.97;;;5.10;99.90;;;;;;4941711;29;20778;-84
2022/12/03 12:40:28;;;;;;;18.30;10.07;;;5.10;99.90;;;;;;4941857;29;20179;-82
2022/12/03 12:43:01;;;;;;;15.03;9.07;;;5.10;99.90;;;;;;4944649;29;20263;-82
2022/12/03 12:45:29;;;;;;;16.93;9.00;;;5.10;99.90;;;;;;4947544;29;20254;-82
2022/12/03 12:48:15;;;;;;;16.83;9.60;;;5.10;99.90;;;;;;4940363;29;20180;-82
2022/12/03 12:50:44;;;;;;;15.70;9.40;;;5.00;99.90;;;;;;4928303;29;20647;-83
2022/12/03 12:53:10;;;;;;;18.47;9.67;;;5.00;99.90;;;;;;4938461;29;20187;-83
2022/12/03 12:55:39;;;;;;;17.50;9.57;;;5.00;99.90;;;;;;4937592;29;20204;-84
2022/12/03 12:58:16;;;;;;;15.80;9.40;;;5.00;99.90;;;;;;4937698;29;20626;-83
2022/12/03 13:00:47;;;;;;;15.30;9.53;;;4.90;99.90;;;;;;4937576;29;20767;-84
2022/12/03 13:03:18;;;;;;;17.10;9.37;;;4.90;99.90;;;;;;4920599;29;20180;-84
2022/12/03 13:05:46;;;;;;;17.23;9.60;;;4.90;99.90;;;;;;4938547;29;20290;-81
2022/12/03 13:08:36;;;;;;;18.57;10.70;;;4.90;99.90;;;;;;4939533;29;20196;-82